RJOS(METAR)
12/11 17:22
RJOS 110822Z 02010KT 9999 -RA FEW020 BKN040 OVC080 09/07 Q1022
RMK 1CU020 5SC040 8AS080 A3018=
戻る
トップページへ戻る
IMOC Co,.Ltd.